createdAt,value
2022-08-20T00:01:09.409Z,19.23
2022-08-20T00:03:57.033Z,17.63
2022-08-20T00:06:49.487Z,17.85
2022-08-20T00:09:38.825Z,17.23
2022-08-20T00:12:28.136Z,21.83
2022-08-20T00:15:22.613Z,19.85
2022-08-20T00:18:12.411Z,20.55
2022-08-20T00:21:02.328Z,22.05
2022-08-20T00:23:52.883Z,22.95
2022-08-20T00:26:52.385Z,25.58
2022-08-20T00:29:41.776Z,23.02
2022-08-20T00:32:32.608Z,23.42
2022-08-20T00:35:23.369Z,24.92
2022-08-20T00:38:12.894Z,27.70
2022-08-20T00:41:03.300Z,26.95
2022-08-20T00:44:11.179Z,32.45
2022-08-20T00:47:01.732Z,31.40
2022-08-20T00:49:52.858Z,46.17
2022-08-20T00:52:43.808Z,45.75
2022-08-20T00:55:39.839Z,49.22
2022-08-20T00:58:29.389Z,48.78
2022-08-20T01:01:18.634Z,52.10
2022-08-20T01:04:08.230Z,52.78
2022-08-20T01:06:57.439Z,45.50
2022-08-20T01:09:58.136Z,47.28
2022-08-20T01:12:48.392Z,54.60
2022-08-20T01:15:43.967Z,47.78
2022-08-20T01:18:35.087Z,49.65
2022-08-20T01:21:25.876Z,47.38
2022-08-20T01:24:15.696Z,52.90
2022-08-20T01:27:07.029Z,47.70
2022-08-20T01:29:54.446Z,46.60
2022-08-20T01:32:42.212Z,51.53
2022-08-20T01:35:29.847Z,48.20
2022-08-20T01:38:17.586Z,49.65
2022-08-20T01:41:16.771Z,50.45
2022-08-20T01:44:05.823Z,49.28
2022-08-20T01:49:51.648Z,45.25
2022-08-20T01:52:41.899Z,46.83
2022-08-20T01:55:29.518Z,46.45
2022-08-20T01:58:17.014Z,44.80
2022-08-20T02:01:06.523Z,42.33
2022-08-20T02:03:54.356Z,41.15
2022-08-20T02:06:56.706Z,44.13
2022-08-20T02:09:46.019Z,40.70
2022-08-20T02:12:35.230Z,37.88
2022-08-20T02:15:35.193Z,37.92
2022-08-20T02:18:26.990Z,41.80
2022-08-20T02:21:15.304Z,39.92
2022-08-20T02:24:03.456Z,36.42
2022-08-20T02:26:51.229Z,36.88
2022-08-20T02:29:38.970Z,39.83
2022-08-20T02:32:33.616Z,38.00
2022-08-20T02:35:24.535Z,39.47
2022-08-20T02:38:12.351Z,41.38
2022-08-20T02:41:00.335Z,39.88
2022-08-20T02:43:48.187Z,38.00
2022-08-20T02:46:36.600Z,35.20
2022-08-20T02:49:23.747Z,33.58
2022-08-20T02:52:14.334Z,31.27
2022-08-20T02:55:02.028Z,29.13
2022-08-20T02:57:48.908Z,36.25
2022-08-20T03:00:41.286Z,38.15
2022-08-20T03:03:29.580Z,38.78
2022-08-20T03:06:17.367Z,37.90
2022-08-20T03:09:09.736Z,42.83
2022-08-20T03:11:57.316Z,41.80
2022-08-20T03:14:45.314Z,38.88
2022-08-20T03:17:33.175Z,39.35
2022-08-20T03:20:22.342Z,39.78
2022-08-20T03:23:11.628Z,38.63
2022-08-20T03:26:00.713Z,34.72
2022-08-20T03:28:49.349Z,37.95
2022-08-20T03:31:36.828Z,39.22
2022-08-20T03:34:24.395Z,36.28
2022-08-20T03:37:12.068Z,37.60
2022-08-20T03:39:59.993Z,37.38
2022-08-20T03:42:49.002Z,37.55
2022-08-20T03:45:37.396Z,36.17
2022-08-20T03:48:25.559Z,36.53
2022-08-20T03:51:13.199Z,41.13
2022-08-20T03:54:00.925Z,37.80
2022-08-20T03:56:47.972Z,42.03
2022-08-20T03:59:37.036Z,38.35
2022-08-20T04:02:25.354Z,40.83
2022-08-20T04:05:12.960Z,40.60
2022-08-20T04:08:02.918Z,46.42
2022-08-20T04:10:51.685Z,40.63
2022-08-20T04:13:43.421Z,42.72
2022-08-20T04:16:33.630Z,41.45
2022-08-20T04:19:22.211Z,43.95
2022-08-20T04:22:09.485Z,44.13
2022-08-20T04:24:57.201Z,39.83
2022-08-20T04:27:45.552Z,40.78
2022-08-20T04:30:33.027Z,38.78
2022-08-20T04:33:33.282Z,41.35
2022-08-20T04:36:22.290Z,37.38
2022-08-20T04:39:09.843Z,36.63
2022-08-20T04:41:56.887Z,34.80
2022-08-20T04:44:44.018Z,35.90
2022-08-20T04:47:34.702Z,39.97
2022-08-20T04:50:24.605Z,37.53
2022-08-20T04:53:13.483Z,36.42
2022-08-20T04:56:02.192Z,43.35
2022-08-20T04:58:49.996Z,38.67
2022-08-20T05:01:38.880Z,50.83
2022-08-20T05:04:27.877Z,45.50
2022-08-20T05:07:19.110Z,56.97
2022-08-20T05:10:07.029Z,54.63
2022-08-20T05:12:56.987Z,52.97
2022-08-20T05:15:45.780Z,52.35
2022-08-20T05:18:35.484Z,48.60
2022-08-20T05:21:23.661Z,46.97
2022-08-20T05:24:13.053Z,49.72
2022-08-20T05:27:01.371Z,50.17
2022-08-20T05:29:49.419Z,53.08
2022-08-20T05:32:44.448Z,46.22
2022-08-20T05:35:33.789Z,51.42
2022-08-20T05:38:22.839Z,45.38
2022-08-20T05:41:11.799Z,47.17
2022-08-20T05:44:15.626Z,46.97
2022-08-20T05:47:04.381Z,40.72
2022-08-20T05:49:52.423Z,46.50
2022-08-20T05:52:40.505Z,41.42
2022-08-20T05:55:29.133Z,41.03
2022-08-20T05:58:21.022Z,44.20
2022-08-20T06:01:09.062Z,40.78
2022-08-20T06:04:14.232Z,45.58
2022-08-20T06:07:03.847Z,47.17
2022-08-20T06:09:51.067Z,46.47
2022-08-20T06:12:38.416Z,41.45
2022-08-20T06:15:28.140Z,39.78
2022-08-20T06:18:27.785Z,36.65
2022-08-20T06:21:16.399Z,32.97
2022-08-20T06:24:04.380Z,35.38
2022-08-20T06:26:56.966Z,28.05
2022-08-20T06:29:44.596Z,35.47
2022-08-20T06:32:33.875Z,30.95
2022-08-20T06:35:21.296Z,24.75
2022-08-20T06:38:11.347Z,23.60
2022-08-20T06:40:59.567Z,22.15
2022-08-20T06:43:47.365Z,24.85
2022-08-20T06:46:36.488Z,26.08
2022-08-20T06:49:24.870Z,27.38
2022-08-20T06:52:17.343Z,27.48
2022-08-20T06:55:05.755Z,31.50
2022-08-20T06:58:00.345Z,27.67
2022-08-20T07:00:49.315Z,24.58
2022-08-20T07:03:38.570Z,26.35
2022-08-20T07:06:28.310Z,25.08
2022-08-20T07:09:15.888Z,21.45
2022-08-20T07:12:03.126Z,25.52
2022-08-20T07:14:51.204Z,21.25
2022-08-20T07:17:38.906Z,16.65
2022-08-20T07:20:26.591Z,20.13
2022-08-20T07:23:15.343Z,16.08
2022-08-20T07:26:03.718Z,18.33
2022-08-20T07:28:51.896Z,19.48
2022-08-20T07:31:56.822Z,20.55
2022-08-20T07:34:44.805Z,21.80
2022-08-20T07:37:32.666Z,20.88
2022-08-20T07:40:26.056Z,21.40
2022-08-20T07:43:15.788Z,22.25
2022-08-20T07:46:10.116Z,27.88
2022-08-20T07:48:57.660Z,28.25
2022-08-20T07:51:45.792Z,31.15
2022-08-20T07:54:33.396Z,27.70
2022-08-20T07:57:22.470Z,35.90
2022-08-20T08:00:11.682Z,35.90
2022-08-20T08:02:58.657Z,36.33
2022-08-20T08:05:48.266Z,43.67
2022-08-20T08:08:35.940Z,36.00
2022-08-20T08:11:24.603Z,36.75
2022-08-20T08:14:14.856Z,29.17
2022-08-20T08:17:04.948Z,29.63
2022-08-20T08:19:53.400Z,39.08
2022-08-20T08:22:44.284Z,44.13
2022-08-20T08:25:32.755Z,42.42
2022-08-20T08:28:20.959Z,41.08
2022-08-20T08:31:10.278Z,42.40
2022-08-20T08:33:57.412Z,48.97
2022-08-20T08:36:45.913Z,50.78
2022-08-20T08:39:35.103Z,55.90
2022-08-20T08:42:27.503Z,57.08
2022-08-20T08:45:17.634Z,56.95
2022-08-20T08:48:06.921Z,63.42
2022-08-20T08:50:57.757Z,63.75
2022-08-20T08:53:49.299Z,70.72
2022-08-20T08:56:36.928Z,65.50
2022-08-20T08:59:24.794Z,69.00
2022-08-20T09:02:19.088Z,67.85
2022-08-20T09:05:16.364Z,66.40
2022-08-20T09:08:04.240Z,66.32
2022-08-20T09:10:51.819Z,63.92
2022-08-20T09:13:39.502Z,65.93
2022-08-20T09:16:37.377Z,63.00
2022-08-20T09:19:36.605Z,65.57
2022-08-20T09:22:26.952Z,63.33
2022-08-20T09:25:14.175Z,64.38
2022-08-20T09:28:02.759Z,58.22
2022-08-20T09:30:51.628Z,62.25
2022-08-20T09:33:38.896Z,60.90
2022-08-20T09:36:32.359Z,63.15
2022-08-20T09:42:13.076Z,65.40
2022-08-20T09:45:00.665Z,64.68
2022-08-20T09:47:56.520Z,65.97
2022-08-20T09:50:47.384Z,72.63
2022-08-20T09:53:35.530Z,79.53
2022-08-20T09:56:23.253Z,73.97
2022-08-20T09:59:11.935Z,72.97
2022-08-20T10:02:00.009Z,76.03
2022-08-20T10:04:47.610Z,68.25
2022-08-20T10:07:36.202Z,73.30
2022-08-20T10:10:23.625Z,70.57
2022-08-20T10:13:12.807Z,68.03
2022-08-20T10:16:04.398Z,74.03
2022-08-20T10:18:51.972Z,62.17
2022-08-20T10:21:39.863Z,69.38
2022-08-20T10:24:27.136Z,72.43
2022-08-20T10:27:14.923Z,68.30
2022-08-20T10:30:02.468Z,71.88
2022-08-20T10:32:51.567Z,64.10
2022-08-20T10:35:38.756Z,62.55
2022-08-20T10:38:27.217Z,62.20
2022-08-20T10:41:14.845Z,63.53
2022-08-20T10:44:01.980Z,61.60
2022-08-20T10:46:49.292Z,61.60
2022-08-20T10:49:42.502Z,59.05
2022-08-20T10:52:29.878Z,53.65
2022-08-20T10:55:18.259Z,53.60
2022-08-20T10:58:06.112Z,50.67
2022-08-20T11:00:54.069Z,46.40
2022-08-20T11:03:41.367Z,50.88
2022-08-20T11:06:29.927Z,52.05
2022-08-20T11:09:17.217Z,53.78
2022-08-20T11:12:05.135Z,43.63
2022-08-20T11:14:53.235Z,48.42
2022-08-20T11:17:41.892Z,44.33
2022-08-20T11:20:28.831Z,45.78
2022-08-20T11:23:17.919Z,42.58
2022-08-20T11:26:05.939Z,42.00
2022-08-20T11:28:53.531Z,45.67
2022-08-20T11:31:40.491Z,35.50
2022-08-20T11:34:27.960Z,40.45
2022-08-20T11:37:17.691Z,37.63
2022-08-20T11:40:08.629Z,37.80
2022-08-20T11:46:04.116Z,35.25
2022-08-20T11:48:51.729Z,35.78
2022-08-20T11:51:49.108Z,34.35
2022-08-20T11:54:40.513Z,30.77
2022-08-20T11:57:30.832Z,33.70
2022-08-20T12:00:19.380Z,28.75
2022-08-20T12:03:11.808Z,27.33
2022-08-20T12:06:00.120Z,27.50
2022-08-20T12:08:47.624Z,29.75
2022-08-20T12:11:35.415Z,26.38
2022-08-20T12:14:24.215Z,23.90
2022-08-20T12:17:13.757Z,26.05
2022-08-20T12:20:03.791Z,27.90
2022-08-20T12:22:53.046Z,23.50
2022-08-20T12:25:40.516Z,22.83
2022-08-20T12:28:28.743Z,25.27
2022-08-20T12:31:17.767Z,19.30
2022-08-20T12:34:05.112Z,18.50
2022-08-20T12:36:53.078Z,18.50
2022-08-20T12:39:41.856Z,22.27
2022-08-20T12:42:30.447Z,19.23
2022-08-20T12:45:19.110Z,19.08
2022-08-20T12:48:12.566Z,17.92
2022-08-20T12:50:59.999Z,17.40
2022-08-20T12:53:47.228Z,20.05
2022-08-20T12:56:34.702Z,20.42
2022-08-20T12:59:25.952Z,16.50
2022-08-20T13:02:15.770Z,18.70
2022-08-20T13:05:15.220Z,16.80
2022-08-20T13:08:02.479Z,17.73
2022-08-20T13:10:50.065Z,21.15
2022-08-20T13:13:37.746Z,17.20
2022-08-20T13:16:25.252Z,16.70
2022-08-20T13:19:12.479Z,16.42
2022-08-20T13:22:00.931Z,13.93
2022-08-20T13:24:48.276Z,16.23
2022-08-20T13:27:38.510Z,16.35
2022-08-20T13:30:25.760Z,20.50
2022-08-20T13:33:13.090Z,16.38
2022-08-20T13:36:00.893Z,18.17
2022-08-20T13:38:51.917Z,14.00
2022-08-20T13:41:39.104Z,17.77
2022-08-20T13:44:32.756Z,20.05
2022-08-20T13:47:22.332Z,18.83
2022-08-20T13:50:10.901Z,20.17
2022-08-20T13:52:58.648Z,15.38
2022-08-20T13:55:48.277Z,11.60
2022-08-20T13:58:35.983Z,11.27
2022-08-20T14:01:23.949Z,15.82
2022-08-20T14:04:11.663Z,13.20
2022-08-20T14:06:58.821Z,14.35
2022-08-20T14:09:46.984Z,13.98
2022-08-20T14:12:37.144Z,12.70
2022-08-20T14:15:26.243Z,18.80
2022-08-20T14:18:14.968Z,19.23
2022-08-20T14:21:03.243Z,13.07
2022-08-20T14:23:50.520Z,16.65
2022-08-20T14:26:38.215Z,15.00
2022-08-20T14:29:27.103Z,15.70
2022-08-20T14:35:06.814Z,14.43
2022-08-20T14:37:56.602Z,13.90
2022-08-20T14:40:44.296Z,12.60
2022-08-20T14:43:31.532Z,12.57
2022-08-20T14:46:20.401Z,15.90
2022-08-20T14:49:07.822Z,19.17
2022-08-20T14:51:55.519Z,12.30
2022-08-20T14:54:43.217Z,13.70
2022-08-20T14:57:30.988Z,12.85
2022-08-20T15:00:19.480Z,15.65
2022-08-20T15:03:07.927Z,17.90
2022-08-20T15:05:55.743Z,14.40
2022-08-20T15:08:43.320Z,15.35
2022-08-20T15:11:34.483Z,16.02
2022-08-20T15:14:21.959Z,16.45
2022-08-20T15:17:11.834Z,13.13
2022-08-20T15:20:02.896Z,14.77
2022-08-20T15:22:50.664Z,14.13
2022-08-20T15:25:38.946Z,15.55
2022-08-20T15:28:26.111Z,14.90
2022-08-20T15:31:13.831Z,14.82
2022-08-20T15:34:01.450Z,15.35
2022-08-20T15:36:50.183Z,17.38
2022-08-20T15:39:38.788Z,15.38
2022-08-20T15:42:26.072Z,17.38
2022-08-20T15:45:13.920Z,17.42
2022-08-20T15:48:11.957Z,20.70
2022-08-20T15:51:15.808Z,16.35
2022-08-20T15:54:07.483Z,19.30
2022-08-20T15:57:00.404Z,23.45
2022-08-20T16:00:02.331Z,19.83
2022-08-20T16:03:00.337Z,17.58
2022-08-20T16:05:52.009Z,18.60
2022-08-20T16:08:46.236Z,13.65
2022-08-20T16:14:23.316Z,14.32
2022-08-20T16:17:12.915Z,13.65
2022-08-20T16:20:05.839Z,12.00
2022-08-20T16:22:53.535Z,15.32
2022-08-20T16:25:50.518Z,15.05
2022-08-20T16:28:42.965Z,10.55
2022-08-20T16:31:33.199Z,14.93
2022-08-20T16:34:34.367Z,15.52
2022-08-20T16:37:25.321Z,12.18
2022-08-20T16:40:20.803Z,15.32
2022-08-20T16:43:09.500Z,15.90
2022-08-20T16:46:01.985Z,14.60
2022-08-20T16:48:56.331Z,17.77
2022-08-20T16:51:51.706Z,13.30
2022-08-20T16:54:43.894Z,11.73
2022-08-20T16:57:31.830Z,12.10
2022-08-20T17:00:23.062Z,11.80
2022-08-20T17:03:11.800Z,14.02
2022-08-20T17:06:01.570Z,11.02
2022-08-20T17:08:51.383Z,13.38
2022-08-20T17:11:39.884Z,15.77
2022-08-20T17:14:27.613Z,14.20
2022-08-20T17:17:23.071Z,12.88
2022-08-20T17:20:20.090Z,14.57
2022-08-20T17:23:10.823Z,13.07
2022-08-20T17:25:59.155Z,16.70
2022-08-20T17:28:49.878Z,17.67
2022-08-20T17:31:41.060Z,15.38
2022-08-20T17:34:30.107Z,12.93
2022-08-20T17:37:22.498Z,9.77
2022-08-20T17:40:16.616Z,11.52
2022-08-20T17:43:05.172Z,11.60
2022-08-20T17:45:53.469Z,10.30
2022-08-20T17:48:44.227Z,13.32
2022-08-20T17:51:32.931Z,10.77
2022-08-20T17:54:24.330Z,12.27
2022-08-20T17:57:15.647Z,11.18
2022-08-20T18:00:05.417Z,14.77
2022-08-20T18:02:55.189Z,12.07
2022-08-20T18:05:44.413Z,14.48
2022-08-20T18:08:37.240Z,11.02
2022-08-20T18:11:27.207Z,12.65
2022-08-20T18:14:25.691Z,12.98
2022-08-20T18:17:17.723Z,10.45
2022-08-20T18:20:22.979Z,12.75
2022-08-20T18:23:12.528Z,11.70
2022-08-20T18:26:03.835Z,10.93
2022-08-20T18:28:52.847Z,11.57
2022-08-20T18:31:45.694Z,12.10
2022-08-20T18:34:38.046Z,8.85
2022-08-20T18:37:29.314Z,12.50
2022-08-20T18:40:19.874Z,13.75
2022-08-20T18:43:12.735Z,12.43
2022-08-20T18:46:09.446Z,12.10
2022-08-20T18:48:59.979Z,14.25
2022-08-20T18:51:50.931Z,14.07
2022-08-20T18:54:38.808Z,9.88
2022-08-20T18:57:27.230Z,12.80
2022-08-20T19:00:26.436Z,12.30
2022-08-20T19:03:20.294Z,12.07
2022-08-20T19:06:15.027Z,12.18
2022-08-20T19:09:07.014Z,10.52
2022-08-20T19:12:02.540Z,11.27
2022-08-20T19:14:59.114Z,11.27
2022-08-20T19:17:53.538Z,12.75
2022-08-20T19:20:43.063Z,12.57
2022-08-20T19:23:35.394Z,12.85
2022-08-20T19:26:26.269Z,12.38
2022-08-20T19:29:14.600Z,17.15
2022-08-20T19:32:03.380Z,11.85
2022-08-20T19:34:54.903Z,14.15
2022-08-20T19:37:50.632Z,12.43
2022-08-20T19:40:43.524Z,13.82
2022-08-20T19:43:42.664Z,10.18
2022-08-20T19:46:31.221Z,11.93
2022-08-20T19:49:25.339Z,14.25
2022-08-20T19:52:23.463Z,10.82
2022-08-20T19:55:19.443Z,12.00
2022-08-20T19:58:09.464Z,8.98
2022-08-20T20:01:05.111Z,14.07
2022-08-20T20:03:57.436Z,17.10
2022-08-20T20:06:45.794Z,18.15
2022-08-20T20:09:32.963Z,20.40
2022-08-20T20:12:22.807Z,25.45
2022-08-20T20:15:12.464Z,26.05
2022-08-20T20:18:01.015Z,18.52
2022-08-20T20:20:57.427Z,17.67
2022-08-20T20:23:54.075Z,19.33
2022-08-20T20:26:42.712Z,17.88
2022-08-20T20:29:35.058Z,20.40
2022-08-20T20:32:25.916Z,15.63
2022-08-20T20:35:24.566Z,21.83
2022-08-20T20:38:25.224Z,17.08
2022-08-20T20:41:20.148Z,17.85
2022-08-20T20:44:09.392Z,18.75
2022-08-20T20:46:58.575Z,20.23
2022-08-20T20:49:51.767Z,19.83
2022-08-20T20:52:48.956Z,21.70
2022-08-20T20:55:39.100Z,17.95
2022-08-20T20:58:26.039Z,17.88
2022-08-20T21:01:14.424Z,18.73
2022-08-20T21:04:02.295Z,20.80
2022-08-20T21:06:52.607Z,20.98
2022-08-20T21:09:40.583Z,23.05
2022-08-20T21:12:28.547Z,23.90
2022-08-20T21:15:16.120Z,23.65
2022-08-20T21:18:04.991Z,25.65
2022-08-20T21:20:52.868Z,22.77
2022-08-20T21:23:41.819Z,25.42
2022-08-20T21:26:30.029Z,21.88
2022-08-20T21:29:32.286Z,26.30
2022-08-20T21:32:21.416Z,22.70
2022-08-20T21:35:10.167Z,21.85
2022-08-20T21:37:57.379Z,19.98
2022-08-20T21:40:46.675Z,23.58
2022-08-20T21:43:33.970Z,15.63
2022-08-20T21:46:24.850Z,22.90
2022-08-20T21:49:12.418Z,18.52
2022-08-20T21:52:00.007Z,17.63
2022-08-20T21:54:47.220Z,17.33
2022-08-20T21:57:36.128Z,13.90
2022-08-20T22:00:38.275Z,16.17
2022-08-20T22:03:27.277Z,18.15
2022-08-20T22:06:15.929Z,13.57
2022-08-20T22:09:02.922Z,13.50
2022-08-20T22:11:54.172Z,13.13
2022-08-20T22:14:44.060Z,15.70
2022-08-20T22:17:31.033Z,18.27
2022-08-20T22:20:18.665Z,15.63
2022-08-20T22:23:06.631Z,18.10
2022-08-20T22:25:54.101Z,21.05
2022-08-20T22:28:41.177Z,15.40
2022-08-20T22:31:30.606Z,19.08
2022-08-20T22:34:20.276Z,16.25
2022-08-20T22:37:07.259Z,17.20
2022-08-20T22:39:55.052Z,16.52
2022-08-20T22:42:42.465Z,20.10
2022-08-20T22:45:29.466Z,17.35
2022-08-20T22:48:19.511Z,23.30
2022-08-20T22:51:07.419Z,20.02
2022-08-20T22:53:54.739Z,17.92
2022-08-20T22:56:42.635Z,18.98
2022-08-20T22:59:31.077Z,21.00
2022-08-20T23:02:19.631Z,17.48
2022-08-20T23:05:09.383Z,19.85
2022-08-20T23:07:58.479Z,16.88
2022-08-20T23:10:46.352Z,18.98
2022-08-20T23:13:40.738Z,17.83
2022-08-20T23:16:28.283Z,15.85
2022-08-20T23:19:17.775Z,19.95
2022-08-20T23:22:07.793Z,26.02
2022-08-20T23:24:58.519Z,16.70
2022-08-20T23:27:49.216Z,22.42
2022-08-20T23:30:36.834Z,15.88
2022-08-20T23:33:24.369Z,18.58
2022-08-20T23:36:12.140Z,20.63
2022-08-20T23:39:01.128Z,20.13
2022-08-20T23:41:55.098Z,19.30
2022-08-20T23:44:42.912Z,23.27
2022-08-20T23:47:30.677Z,17.90
2022-08-20T23:50:20.362Z,16.48
2022-08-20T23:53:07.824Z,15.38
2022-08-20T23:55:57.512Z,16.50
2022-08-20T23:58:44.767Z,18.08
